• Join FlightAware (Why Join?)
  • Login
  • US Flag 
04:43PM EDT


 

Airport Tracker/Info


-or-


 

Live Flight TrackerFlight Track Log ✈ JBU440 ✈ 30-Apr-2013 ✈ KTPA - KBOS

Flight Track Log - Related Links

Times and Time Zones

All times are in EDT time to prevent confusion due to time zone crossing. See the JBU440 flight status page for this flight to view local times or setup timezone preferences in your user account.

Time Position Orientation Groundspeed Altitude Reporting Facility
EDT Latitude Longitude Course Direction KTS MPH feet Rate Location/Type
10:17AM 27.9500 -82.5500 354° North 163 188 1,200  Level Tampa TRACON
10:18AM 27.9167 -82.5500 180° South 190 219 2,100 2,400 Climbing Tampa TRACON
10:20AM 28.4345 -82.5718 355° North  Level FlightAware Approximate
10:20AM 27.8617 -82.6672 242° Southwest 248 285 7,400  Level Jacksonville Center
10:21AM 28.5525 -82.5833 North  Level FlightAware Approximate
10:21AM 27.9161 -82.6858 343° North 167 192 9,900  Level Jacksonville Center
10:22AM 28.6710 -82.5839 354° North  Level FlightAware Approximate
10:22AM 28.0119 -82.6644 11° North 186 214 11,600  Level Jacksonville Center
10:23AM 28.1081 -82.6431 11° North 264 304 14,500 2,220 Climbing Jacksonville Center
10:24AM 28.2103 -82.6194 12° North 332 382 16,100 1,800 Climbing Jacksonville Center
10:25AM 28.3164 -82.5931 12° North 367 422 18,100 1,860 Climbing Jacksonville Center
10:26AM 28.4292 -82.5811 North 387 445 19,900 1,680 Climbing Jacksonville Center
10:27AM 28.5481 -82.5878 357° North 406 467 21,500 1,680 Climbing Jacksonville Center
10:28AM 28.6650 -82.5897 359° North 412 474 23,300 1,620 Climbing Jacksonville Center
10:29AM 28.7819 -82.6036 354° North 423 487 24,800 1,380 Climbing Jacksonville Center
10:30AM 28.9031 -82.6197 353° North 423 487 26,100 1,200 Climbing Jacksonville Center
10:31AM 29.0283 -82.6383 353° North 433 498 27,200 1,140 Climbing Jacksonville Center
10:32AM 29.1536 -82.6547 353° North 446 513 28,400 1,260 Climbing Jacksonville Center
10:33AM 29.2956 -82.6758 353° North 455 524 29,800 1,500 Climbing Jacksonville Center
10:34AM 29.4208 -82.6900 354° North 460 529 31,400 1,440 Climbing Jacksonville Center
10:35AM 29.5481 -82.6944 358° North 460 529 32,700 1,140 Climbing Jacksonville Center
10:36AM 29.6775 -82.6942 360° North 460 529 33,700 600 Climbing Jacksonville Center
10:37AM 29.7967 -82.6914 North 452 520 34,000 120 Climbing Jacksonville Center
10:38AM 29.9219 -82.6911 360° North 445 512 34,000 240 Level Jacksonville Center
10:39AM 30.0472 -82.6886 North 445 512 34,500 480 Climbing Jacksonville Center
10:40AM 30.1725 -82.6858 North 445 512 35,000 240 Climbing Jacksonville Center
10:41AM 30.2956 -82.6856 360° North 439 505 35,000  Level Jacksonville Center
10:42AM 30.4208 -82.6853 360° North 439 505 35,000 -60 Level Jacksonville Center
10:43AM 30.5419 -82.6611 10° North 439 505 34,900  Descending Jacksonville Center
10:44AM 30.6525 -82.6197 18° North 444 511 35,000  Climbing Jacksonville Center
10:45AM 30.7756 -82.5589 23° Northeast 458 527 35,000  Level Jacksonville Center
10:46AM 30.9006 -82.4956 23° Northeast 471 542 35,000 -60 Level Jacksonville Center
10:47AM 31.0194 -82.4392 22° Northeast 471 542 34,900 -60 Descending Jacksonville Center
10:48AM 31.1425 -82.3803 22° Northeast 471 542 34,900  Level Jacksonville Center
10:49AM 31.2675 -82.3164 24° Northeast 476 548 35,000  Climbing Jacksonville Center
10:50AM 31.3925 -82.2572 22° Northeast 476 548 35,000  Level Jacksonville Center
10:51AM 31.5175 -82.1981 22° Northeast 476 548 35,000  Level Jacksonville Center
10:52AM 31.6528 -82.1261 24° Northeast 476 548 35,000  Level Jacksonville Center
10:53AM 31.7756 -82.0667 22° Northeast 475 547 35,000  Level Jacksonville Center
10:54AM 31.8900 -82.0117 22° Northeast 475 547 35,000  Level Jacksonville Center
10:55AM 32.0167 -81.9247 30° Northeast 475 547 35,000  Level Jacksonville Center
10:56AM 32.1100 -81.8356 39° Northeast 475 547 35,000  Level Jacksonville Center
10:57AM 32.2239 -81.7236 40° Northeast 481 554 35,000  Level Jacksonville Center
10:58AM 32.3292 -81.6214 39° Northeast 489 563 35,000  Level Jacksonville Center
10:59AM 32.4222 -81.5292 40° Northeast 484 557 35,000  Level Jacksonville Center
11:00AM 32.5317 -81.4167 41° Northeast 479 551 35,000  Level Jacksonville Center
11:01AM 32.6306 -81.3164 40° Northeast 470 541 35,000 -60 Level Jacksonville Center
11:02AM 32.7317 -81.2133 41° Northeast 475 547 34,900 -60 Descending Jacksonville Center
11:03AM 32.8303 -81.1125 41° Northeast 475 547 34,900  Level Jacksonville Center
11:04AM 32.9292 -81.0117 41° Northeast 475 547 35,000  Climbing Jacksonville Center
11:05AM 33.0319 -80.9053 41° Northeast 475 547 35,000 -60 Level Jacksonville Center
11:06AM 33.1306 -80.8064 40° Northeast 475 547 34,900 -60 Descending Jacksonville Center
11:07AM 33.2269 -80.7100 40° Northeast 470 541 34,900  Level Jacksonville Center
11:08AM 33.3231 -80.6056 42° Northeast 465 535 34,900  Level Jacksonville Center
11:09AM 33.4194 -80.5036 41° Northeast 460 529 35,000  Climbing Jacksonville Center
11:10AM 33.4942 -80.3794 54° Northeast 454 522 35,000  Level Jacksonville Center
11:11AM 33.5519 -80.2383 64° Northeast 459 528 35,000  Level Jacksonville Center
11:12AM 33.5992 -80.1097 66° East 459 528 35,000  Level Jacksonville Center
11:13AM 33.6481 -79.9611 68° East 464 534 35,000  Level Jacksonville Center
11:14AM 33.7008 -79.8144 67° East 469 540 35,000  Level Jacksonville Center
11:15AM 33.7492 -79.6656 69° East 475 547 35,000  Level Jacksonville Center
11:16AM 33.8017 -79.5211 66° East 475 547 35,000  Level Jacksonville Center
11:17AM 33.8728 -79.3708 60° Northeast 469 540 35,000  Level Jacksonville Center
11:18AM 33.9636 -79.2569 46° Northeast 468 539 35,000  Level Jacksonville Center
11:19AM 34.1514 -79.1100 33° Northeast 473 544 35,000  Level Washington Center
11:20AM 34.2667 -79.0244 32° Northeast 479 551 35,000  Level Washington Center
11:21AM 34.3775 -78.9411 32° Northeast 479 551 35,000  Level Washington Center
11:22AM 34.4944 -78.8553 31° Northeast 479 551 35,000  Level Washington Center
11:23AM 34.6075 -78.7639 34° Northeast 485 558 35,000  Level Washington Center
11:24AM 34.7331 -78.6700 32° Northeast 490 564 35,000  Level Washington Center
11:25AM 34.8311 -78.5956 32° Northeast 478 550 35,000  Level Washington Center
11:26AM 34.9436 -78.5083 32° Northeast 478 550 35,000  Level Washington Center
11:27AM 35.0564 -78.4236 32° Northeast 473 544 35,000  Level Washington Center
11:28AM 35.1669 -78.3336 34° Northeast 473 544 35,000  Level Washington Center
11:29AM 35.2772 -78.2508 31° Northeast 473 544 35,000  Level Washington Center
11:30AM 35.3878 -78.1653 32° Northeast 473 544 35,000  Level Washington Center
11:31AM 35.4981 -78.0819 32° Northeast 468 539 35,000  Level Washington Center
11:32AM 35.6061 -77.9986 32° Northeast 468 539 35,000  Level Washington Center
11:33AM 35.7142 -77.9122 33° Northeast 463 533 35,000  Level Washington Center
11:34AM 35.8222 -77.8258 33° Northeast 463 533 35,000  Level Washington Center
11:35AM 35.9322 -77.7417 32° Northeast 463 533 35,000  Level Washington Center
11:36AM 36.0342 -77.6519 35° Northeast 463 533 35,000  Level Washington Center
11:37AM 36.1378 -77.5569 37° Northeast 458 527 35,000  Level Washington Center
11:38AM 36.2481 -77.4514 38° Northeast 450 518 35,000  Level Washington Center
11:39AM 36.3497 -77.3558 37° Northeast 450 518 35,000  Level Washington Center
11:40AM 36.4511 -77.2628 36° Northeast 450 518 35,000  Level Washington Center
11:41AM 36.5461 -77.1717 38° Northeast 450 518 35,000  Level Washington Center
11:42AM 36.6497 -77.0728 37° Northeast 460 529 35,000  Level Washington Center
11:43AM 36.7553 -76.9736 37° Northeast 470 541 35,000  Level Washington Center
11:44AM 36.8606 -76.8794 36° Northeast 470 541 35,000  Level Washington Center
11:45AM 36.9658 -76.7850 36° Northeast 464 534 35,000  Level Washington Center
11:46AM 37.0711 -76.6903 36° Northeast 464 534 35,000  Level Washington Center
11:47AM 37.1761 -76.5928 36° Northeast 459 528 35,000  Level Washington Center
11:48AM 37.2814 -76.4975 36° Northeast 459 528 35,000  Level Washington Center
11:49AM 37.3864 -76.3994 37° Northeast 459 528 35,000  Level Washington Center
11:50AM 37.5036 -76.2961 35° Northeast 464 534 35,000  Level Washington Center
11:51AM 37.6086 -76.1975 37° Northeast 464 534 35,000  Level Washington Center
11:52AM 37.7175 -76.1064 33° Northeast 464 534 35,000  Level Washington Center
11:53AM 37.8181 -76.0044 39° Northeast 464 534 35,000  Level Washington Center
11:54AM 37.9244 -75.9050 36° Northeast 464 534 35,000  Level Washington Center
11:55AM 38.0311 -75.8131 34° Northeast 464 534 35,000  Level Washington Center
11:56AM 38.1333 -75.7078 39° Northeast 464 534 35,000  Level Washington Center
11:57AM 38.2397 -75.6075 37° Northeast 464 534 35,000  Level Washington Center
11:58AM 38.3503 -75.5203 32° Northeast 464 534 35,000  Level Washington Center
11:59AM 38.4669 -75.4539 24° Northeast 451 519 35,000 -60 Level Washington Center
12:00PM 38.5878 -75.4083 16° North 451 519 34,900 -60 Descending Washington Center
12:01PM 38.7108 -75.3603 17° North 451 519 34,900  Level Washington Center
12:02PM 38.8336 -75.3119 17° North 451 519 35,000  Climbing Washington Center
12:03PM 38.9544 -75.2553 20° North 451 519 35,000  Level Washington Center
12:04PM 39.0731 -75.2067 18° North 456 525 35,000  Level Washington Center
12:05PM 39.1958 -75.1550 18° North 456 525 35,000  Level Washington Center
12:06PM 39.3125 -75.0900 23° Northeast 456 525 35,000  Level Washington Center
12:07PM 39.4203 -74.9953 34° Northeast 456 525 35,000  Level Washington Center
12:08PM 39.5239 -74.8919 38° Northeast 463 533 35,000  Level Washington Center
12:09PM 39.6275 -74.7886 38° Northeast 463 533 35,000  Level Washington Center
12:11PM 39.7575 -74.6619 37° Northeast 454 522 35,000  Level New York Center
12:12PM 39.8589 -74.5594 38° Northeast 454 522 35,000  Level New York Center
12:13PM 39.9536 -74.4644 38° Northeast 454 522 35,000  Level New York Center
12:14PM 40.0569 -74.3586 38° Northeast 459 528 35,000  Level New York Center
12:15PM 40.1558 -74.2553 39° Northeast 459 528 35,000  Level New York Center
12:16PM 40.2531 -74.1433 41° Northeast 459 528 35,000 -600 Level New York Center
12:18PM 40.5244 -73.8353 41° Northeast 471 542 32,900 -1,380 Descending Boston Center
12:19PM 40.6217 -73.7253 41° Northeast 453 521 29,900 -3,000 Descending Boston Center
12:20PM 40.7147 -73.6064 44° Northeast 453 521 27,000 -2,820 Descending Boston Center
12:21PM 40.8094 -73.4958 41° Northeast 448 516 24,300 -1,500 Descending Boston Center
12:22PM 40.8961 -73.3792 45° Northeast 448 516 24,000 -240 Descending Boston Center
12:23PM 40.9803 -73.2622 46° Northeast 443 510 23,900 -540 Descending Boston Center
12:24PM 41.0644 -73.1422 47° Northeast 443 510 23,000 -480 Descending Boston Center
12:25PM 41.1464 -73.0133 50° Northeast 443 510 23,000  Level Boston Center
12:26PM 41.2219 -72.8844 52° Northeast 443 510 23,000  Level Boston Center
12:27PM 41.2767 -72.7272 65° Northeast 443 510 23,000  Level Boston Center
12:28PM 41.3311 -72.5700 65° Northeast 454 522 23,000  Level Boston Center
12:29PM 41.3875 -72.4069 65° Northeast 449 517 23,000  Level Boston Center
12:30PM 41.4311 -72.2822 65° Northeast 449 517 23,000 -420 Level Boston Center
12:31PM 41.4892 -72.1186 65° Northeast 444 511 22,200 -1,920 Descending Boston Center
12:32PM 41.5386 -71.9714 66° East 438 504 19,200 -2,760 Descending Boston Center
12:33PM 41.5881 -71.8322 65° Northeast 421 484 16,700 -2,880 Descending Boston Center
12:34PM 41.6372 -71.6956 64° Northeast 409 471 13,500 -2,820 Descending Boston Center
12:35PM 41.6822 -71.5617 66° East 399 459 11,100 -1,260 Descending Boston Center
12:36PM 41.7208 -71.4528 65° Northeast 363 418 11,000 -60 Descending Boston Center
12:37PM 41.7658 -71.3658 55° Northeast 313 360 11,000  Level Boston Center
12:38PM 41.8214 -71.2925 45° Northeast 289 333 11,000 -420 Level Boston Center
12:39PM 41.8875 -71.2353 33° Northeast 276 318 10,200 -1,260 Descending Boston Center
12:40PM 41.9622 -71.2006 19° North 271 312 8,500 -1,500 Descending Boston Center
12:41PM 42.0347 -71.1683 18° North 271 312 7,200 -1,140 Descending Boston Center
12:42PM 42.0950 -71.1392 20° North 247 284 6,300 -1,080 Descending Boston Center
12:43PM 42.1333 -71.1167 24° Northeast 189 217 5,500 -1,500 Descending KA90
12:44PM 42.1833 -71.1000 14° North 178 205 3,800 -1,320 Descending KA90
12:45PM 42.2167 -71.0833 20° North 177 204 3,100 -1,020 Descending KA90
12:46PM 42.2833 -71.0500 20° North 184 212 1,700 -960 Descending KA90
12:47PM 42.3167 -71.0333 20° North 145 167 900 -780 Descending KA90
12:48PM 42.3500 -71.0167 20° North 134 154 300 -780 Descending KA90